Ithaca Tompkins Regional Airport
KITH : now visible

Airfield :











YOU CAN JOIN US ON...

 
LOGIN :

Register | Disclaimer

   EN    FR    IT 

 









Legend :    VFR   Marginal VFR   IFR   Intensive IFR   Very Intensive IFR
Visi :
Ceiling :
>= 8 km
>= 3000ft
5 to 8 km
1000 to 3000 ft
1500m to 5 km
500 to 1000 ft
800 to 1500m
200 to 500 ft
< 800m
< 200 ft
Symbols :   Thunderstorms  Fog  Heavy snow  Heavy precipitations  Wind > 20 kt






- Airport Elevation : 1099 ft
- IATA code : ITH


KITH - Ithaca Tompkins Regional

CURRENT METAR :
  • 260056Z 16003KT 10SM CLR 23/19 A3010 RMK AO2 SLP186 T02280189

EXPIRED METARs :
  • 252356Z 18007KT 10SM CLR 26/18 A3009 RMK AO2 SLP182 T02560183 10283 20239 55002
  • 252256Z 17006KT 10SM FEW060 27/19 A3008 RMK AO2 LTG DSNT SW TSE31 SLP180 T02720189
  • 252237Z 17009KT 10SM FEW060 27/19 A3008 RMK AO2 LTG DSNT SW TSE31

TAF KITH
Valid from the 26 at 00:00 until the 27 at 00:00 UTC


252335Z 2600/2624 17005KT P6SM FEW050
FM260700 16005KT P6SM SCT040
FM260900 16005KT 6SM BR OVC025
FM261300 00000KT P6SM SCT210
KZNY FIR / North America



MET'MAP, your aeronautical weather chart ! - Copyright ORBIFLY December 2007 - Disclaimer

ORBIFLY MET'MAP TEAM :

Programming & Development : Alexandra Zaïnal
Concept & original design : Baudouin d'Aumeries
Assistance for programming : Marc-Olivier Méhu
Technical & hardware support : Manuel Goepfert

Contact : metmap@orbifly.com




SOURCES & CREDITS :

   NOAA       Earth
Advisory